Time;durP1;ratioP1;P1;durP2;ratioP2;P2;SDS_P1;SDS_P2;PMS_P1;PMS_P2;Temp;Humidity;BMP_temperature;BMP_pressure;BME280_temperature;BME280_humidity;BME280_pressure;Samples;Min_cycle;Max_cycle;Signal;HPM_P1;HPM_P2
2022/05/28 00:01:48;;;;;;;1.63;1.50;;;15.80;66.90;;;;;;4950133;28;20183;-70
2022/05/28 00:04:15;;;;;;;1.40;1.30;;;15.70;66.90;;;;;;4951176;28;20521;-69
2022/05/28 00:06:41;;;;;;;1.60;1.50;;;15.80;67.00;;;;;;4951775;28;20038;-69
2022/05/28 00:09:07;;;;;;;1.52;1.42;;;15.80;67.10;;;;;;4950258;28;20097;-69
2022/05/28 00:11:36;;;;;;;1.45;1.35;;;15.70;66.90;;;;;;4945545;28;20039;-67
2022/05/28 00:14:04;;;;;;;1.55;1.42;;;15.70;66.60;;;;;;4948242;28;20035;-70
2022/05/28 00:16:29;;;;;;;1.50;1.23;;;15.70;66.90;;;;;;4953428;28;20046;-69
2022/05/28 00:18:55;;;;;;;1.45;1.35;;;15.70;66.90;;;;;;4953599;28;20031;-68
2022/05/28 00:21:23;;;;;;;2.22;1.42;;;15.60;66.90;;;;;;4952613;28;20050;-69
2022/05/28 00:23:49;;;;;;;2.92;1.40;;;15.60;67.30;;;;;;4955985;28;20027;-69
2022/05/28 00:26:15;;;;;;;2.35;1.60;;;15.50;67.10;;;;;;4951483;28;20093;-69
2022/05/28 00:28:41;;;;;;;1.63;1.50;;;15.50;67.30;;;;;;4950398;28;20490;-68
2022/05/28 00:31:07;;;;;;;1.67;1.58;;;15.40;67.40;;;;;;4951597;28;20134;-68
2022/05/28 00:33:33;;;;;;;1.95;1.40;;;15.40;67.40;;;;;;4950170;28;20039;-69
2022/05/28 00:36:00;;;;;;;2.80;1.65;;;15.30;67.60;;;;;;4958164;28;20031;-69
2022/05/28 00:38:26;;;;;;;1.50;1.40;;;15.30;67.70;;;;;;4955434;28;20035;-69
2022/05/28 00:40:55;;;;;;;1.65;1.55;;;15.30;67.80;;;;;;4951950;28;20046;-68
2022/05/28 00:43:21;;;;;;;3.05;1.65;;;15.20;67.80;;;;;;4953566;28;20035;-69
2022/05/28 00:45:50;;;;;;;1.50;1.40;;;15.20;67.80;;;;;;4953568;28;20057;-69
2022/05/28 00:48:24;;;;;;;1.23;1.20;;;15.10;68.00;;;;;;4955440;28;20100;-69
2022/05/28 00:50:49;;;;;;;1.75;1.58;;;15.10;68.20;;;;;;4955250;28;20051;-69
2022/05/28 00:53:16;;;;;;;1.60;1.50;;;15.00;68.10;;;;;;4955648;28;20027;-70
2022/05/28 00:55:42;;;;;;;1.70;1.60;;;15.00;68.20;;;;;;4956025;28;20039;-70
2022/05/28 00:58:09;;;;;;;1.50;1.40;;;15.00;68.30;;;;;;4954056;28;20112;-70
2022/05/28 01:00:36;;;;;;;2.92;1.48;;;15.00;68.40;;;;;;4953422;28;20035;-69
2022/05/28 01:03:20;;;;;;;2.00;1.77;;;15.00;68.50;;;;;;4956857;28;20035;-68
2022/05/28 01:06:01;;;;;;;1.90;1.80;;;14.90;68.80;;;;;;4956022;28;20591;-69
2022/05/28 01:08:59;;;;;;;1.80;1.70;;;14.90;68.30;;;;;;4954400;28;20821;-69
2022/05/28 01:11:37;;;;;;;2.95;1.60;;;14.80;68.70;;;;;;4953376;28;20043;-68
2022/05/28 01:14:24;;;;;;;2.03;1.77;;;14.80;68.80;;;;;;4956475;28;20046;-69
2022/05/28 01:16:55;;;;;;;2.35;1.60;;;14.70;69.30;;;;;;4952693;28;20498;-69
2022/05/28 01:19:35;;;;;;;2.15;1.50;;;14.70;69.00;;;;;;4956370;28;20027;-69
2022/05/28 01:22:19;;;;;;;1.73;1.63;;;14.70;69.40;;;;;;4954518;28;20034;-69
2022/05/28 01:24:45;;;;;;;1.70;1.60;;;14.60;69.60;;;;;;4957223;28;20027;-68
2022/05/28 01:27:21;;;;;;;2.03;1.60;;;14.60;69.30;;;;;;4951377;28;20057;-69
2022/05/28 01:29:51;;;;;;;3.42;1.50;;;14.60;69.70;;;;;;4953331;28;20388;-68
2022/05/28 01:32:19;;;;;;;3.53;1.80;;;14.60;69.50;;;;;;4954973;28;20566;-68
2022/05/28 01:34:45;;;;;;;1.63;1.52;;;14.60;69.60;;;;;;4955490;28;20331;-68
2022/05/28 01:37:12;;;;;;;1.90;1.70;;;14.50;69.50;;;;;;4956140;28;20042;-69
2022/05/28 01:39:41;;;;;;;1.58;1.48;;;14.50;69.50;;;;;;4958184;28;20032;-68
2022/05/28 01:42:08;;;;;;;1.90;1.80;;;14.50;69.70;;;;;;4954585;28;20058;-69
2022/05/28 01:44:36;;;;;;;1.60;1.50;;;14.50;69.70;;;;;;4956364;28;20027;-69
2022/05/28 01:47:01;;;;;;;1.98;1.77;;;14.40;70.60;;;;;;4955931;28;20078;-69
2022/05/28 01:49:29;;;;;;;1.60;1.50;;;14.40;69.90;;;;;;4952890;28;20529;-68
2022/05/28 01:51:57;;;;;;;1.77;1.45;;;14.40;69.80;;;;;;4952723;28;20073;-67
2022/05/28 01:54:26;;;;;;;3.55;2.00;;;14.40;70.00;;;;;;4956052;28;20090;-69
2022/05/28 01:56:54;;;;;;;2.20;1.58;;;14.30;69.90;;;;;;4954040;28;20393;-69
2022/05/28 01:59:25;;;;;;;1.88;1.73;;;14.30;70.90;;;;;;4954692;28;20453;-68
2022/05/28 02:01:52;;;;;;;1.75;1.65;;;14.20;70.30;;;;;;4954563;28;20110;-70
2022/05/28 02:04:18;;;;;;;2.03;1.75;;;14.10;70.20;;;;;;4956400;28;20045;-68
2022/05/28 02:06:44;;;;;;;1.95;1.75;;;14.00;70.40;;;;;;4954976;28;20069;-69
2022/05/28 02:09:17;;;;;;;3.17;1.70;;;14.00;70.70;;;;;;4954312;28;20497;-69
2022/05/28 02:12:13;;;;;;;2.60;1.90;;;13.90;71.20;;;;;;4949645;28;20035;-69
2022/05/28 02:14:50;;;;;;;2.60;2.25;;;13.80;72.10;;;;;;4952708;28;20119;-68
2022/05/28 02:17:37;;;;;;;2.03;1.90;;;13.70;72.30;;;;;;4953144;28;20083;-69
2022/05/28 02:20:15;;;;;;;4.70;2.00;;;13.60;72.80;;;;;;4954393;28;20027;-68
2022/05/28 02:22:55;;;;;;;2.58;1.90;;;13.50;72.50;;;;;;4952696;28;20142;-67
2022/05/28 02:25:27;;;;;;;2.13;1.92;;;13.40;73.20;;;;;;4955992;28;20020;-68
2022/05/28 02:27:55;;;;;;;2.80;2.20;;;13.40;73.60;;;;;;4953206;28;20034;-68
2022/05/28 02:30:21;;;;;;;2.33;2.08;;;13.40;73.70;;;;;;4953940;28;20449;-68
2022/05/28 02:32:47;;;;;;;2.03;1.92;;;13.40;73.70;;;;;;4953983;28;20034;-69
2022/05/28 02:35:13;;;;;;;2.42;2.22;;;13.40;73.90;;;;;;4954322;28;20043;-69
2022/05/28 02:37:39;;;;;;;2.35;2.15;;;13.40;74.00;;;;;;4960978;28;20772;-68
2022/05/28 02:40:05;;;;;;;2.20;2.00;;;13.50;74.20;;;;;;4953130;28;20126;-69
2022/05/28 02:42:32;;;;;;;2.67;2.13;;;13.50;74.00;;;;;;4952200;28;20383;-68
2022/05/28 02:44:58;;;;;;;2.50;2.30;;;13.50;74.20;;;;;;4951545;28;20647;-70
2022/05/28 02:47:24;;;;;;;2.63;2.30;;;13.60;74.40;;;;;;4952258;28;20546;-69
2022/05/28 02:49:53;;;;;;;2.38;2.17;;;13.60;74.40;;;;;;4956081;28;20578;-69
2022/05/28 02:52:18;;;;;;;2.90;1.90;;;13.60;74.50;;;;;;4951239;28;20144;-69
2022/05/28 02:54:44;;;;;;;2.17;2.00;;;13.70;74.40;;;;;;4953339;28;20585;-69
2022/05/28 02:57:10;;;;;;;2.35;2.15;;;13.70;74.40;;;;;;4955267;28;20653;-67
2022/05/28 02:59:35;;;;;;;2.75;2.20;;;13.80;74.30;;;;;;4951508;28;20035;-69
2022/05/28 03:02:02;;;;;;;2.80;2.35;;;13.80;74.10;;;;;;4951456;28;20035;-68
2022/05/28 03:04:28;;;;;;;3.80;2.08;;;13.90;73.90;;;;;;4954275;28;20034;-69
2022/05/28 03:06:54;;;;;;;3.30;2.40;;;13.90;73.80;;;;;;4955314;28;20570;-69
2022/05/28 03:09:20;;;;;;;3.15;2.58;;;14.00;73.60;;;;;;4954961;28;20031;-69
2022/05/28 03:11:46;;;;;;;3.35;2.30;;;14.00;73.10;;;;;;4951733;28;20387;-69
2022/05/28 03:14:11;;;;;;;5.13;2.65;;;14.10;72.60;;;;;;4956110;28;20042;-69
2022/05/28 03:16:38;;;;;;;4.28;2.60;;;14.00;72.20;;;;;;4956264;28;20027;-69
2022/05/28 03:19:03;;;;;;;4.05;2.40;;;14.10;72.10;;;;;;4956540;28;20031;-69
2022/05/28 03:21:29;;;;;;;3.03;2.42;;;14.10;71.80;;;;;;4955486;28;20030;-69
2022/05/28 03:23:55;;;;;;;6.25;2.63;;;14.10;71.50;;;;;;4954983;28;21240;-68
2022/05/28 03:26:26;;;;;;;4.03;2.30;;;14.10;71.40;;;;;;4954457;28;20037;-69
2022/05/28 03:28:53;;;;;;;6.00;2.83;;;14.10;71.20;;;;;;4953398;28;20120;-68
2022/05/28 03:31:19;;;;;;;4.75;2.45;;;14.20;70.90;;;;;;4949964;28;21989;-68
2022/05/28 03:33:45;;;;;;;3.85;2.33;;;14.20;71.30;;;;;;4952903;28;20035;-69
2022/05/28 03:36:11;;;;;;;6.95;2.60;;;14.20;70.20;;;;;;4954843;28;20042;-70
2022/05/28 03:38:37;;;;;;;6.47;2.30;;;14.20;70.20;;;;;;4951866;28;20028;-68
2022/05/28 03:41:04;;;;;;;5.63;2.50;;;14.20;70.00;;;;;;4956418;28;20031;-69
2022/05/28 03:43:30;;;;;;;4.13;2.40;;;14.20;69.90;;;;;;4954866;28;20142;-69
2022/05/28 03:45:56;;;;;;;3.15;2.10;;;14.20;69.90;;;;;;4952199;28;20035;-69
2022/05/28 03:48:23;;;;;;;6.93;2.60;;;14.20;69.70;;;;;;4952520;28;20031;-69
2022/05/28 03:50:48;;;;;;;8.43;2.60;;;14.20;69.70;;;;;;4952869;28;20031;-69
2022/05/28 03:53:15;;;;;;;8.15;2.53;;;14.20;69.50;;;;;;4953043;28;20041;-70
2022/05/28 03:55:41;;;;;;;7.47;2.60;;;14.20;69.50;;;;;;4951627;28;20549;-68
2022/05/28 03:58:07;;;;;;;4.18;2.80;;;14.30;69.40;;;;;;4954384;28;20035;-70
2022/05/28 04:00:34;;;;;;;6.55;2.47;;;14.30;69.30;;;;;;4951588;28;20034;-69
2022/05/28 04:02:59;;;;;;;5.43;2.33;;;14.20;69.30;;;;;;4949470;28;21225;-69
2022/05/28 04:05:25;;;;;;;6.60;2.20;;;14.20;69.20;;;;;;4954874;28;20046;-69
2022/05/28 04:07:51;;;;;;;8.20;2.75;;;14.20;69.20;;;;;;4954375;28;20050;-69
2022/05/28 04:10:18;;;;;;;7.78;2.75;;;14.20;69.00;;;;;;4957003;28;20046;-69
2022/05/28 04:12:44;;;;;;;8.40;2.30;;;14.20;69.10;;;;;;4950569;28;20411;-69
2022/05/28 04:15:11;;;;;;;7.50;3.00;;;14.20;69.90;;;;;;4956081;28;20077;-67
2022/05/28 04:17:38;;;;;;;5.25;2.20;;;14.10;69.00;;;;;;4957159;28;20035;-69
2022/05/28 04:20:05;;;;;;;5.53;2.47;;;14.20;69.10;;;;;;4957151;28;20075;-69
2022/05/28 04:22:31;;;;;;;5.80;2.55;;;14.20;69.30;;;;;;4955478;28;20078;-69
2022/05/28 04:24:57;;;;;;;6.28;2.35;;;14.20;69.50;;;;;;4955703;28;20455;-69
2022/05/28 04:27:22;;;;;;;6.22;2.75;;;14.20;69.30;;;;;;4956934;28;20035;-69
2022/05/28 04:29:48;;;;;;;3.63;2.30;;;14.30;69.30;;;;;;4957449;28;20548;-68
2022/05/28 04:32:13;;;;;;;4.30;2.22;;;14.30;69.20;;;;;;4954680;28;20077;-69
2022/05/28 04:34:39;;;;;;;5.22;2.45;;;14.30;69.00;;;;;;4958659;28;20043;-69
2022/05/28 04:37:05;;;;;;;6.35;2.83;;;14.40;69.00;;;;;;4956508;28;20043;-69
2022/05/28 04:39:30;;;;;;;6.05;2.70;;;14.40;68.80;;;;;;4956024;28;20459;-69
2022/05/28 04:41:56;;;;;;;9.20;2.83;;;14.40;68.80;;;;;;4958381;28;20255;-68
2022/05/28 04:44:23;;;;;;;8.55;2.58;;;14.40;68.70;;;;;;4956274;28;20520;-69
2022/05/28 04:46:48;;;;;;;6.60;2.38;;;14.30;68.80;;;;;;4954806;28;20105;-68
2022/05/28 04:49:14;;;;;;;4.30;2.40;;;14.30;69.00;;;;;;4954671;28;20043;-69
2022/05/28 04:51:40;;;;;;;4.22;2.25;;;14.30;69.10;;;;;;4955842;28;20039;-69
2022/05/28 04:54:06;;;;;;;4.30;2.58;;;14.30;69.20;;;;;;4955974;28;20129;-68
2022/05/28 04:56:32;;;;;;;6.78;2.70;;;14.40;69.10;;;;;;4959402;28;20031;-68
2022/05/28 04:58:58;;;;;;;4.63;2.35;;;14.40;69.20;;;;;;4954266;28;20491;-69
2022/05/28 05:01:24;;;;;;;5.38;2.45;;;14.40;69.30;;;;;;4955099;28;20059;-69
2022/05/28 05:03:50;;;;;;;6.22;2.63;;;14.50;69.30;;;;;;4966098;28;20081;-69
2022/05/28 05:06:16;;;;;;;6.00;2.72;;;14.40;69.30;;;;;;4959421;28;20185;-69
2022/05/28 05:08:41;;;;;;;8.13;2.55;;;14.50;69.30;;;;;;4953855;28;20054;-69
2022/05/28 05:11:07;;;;;;;5.97;2.90;;;14.60;68.80;;;;;;4954860;28;20043;-70
2022/05/28 05:13:32;;;;;;;4.72;2.72;;;14.60;68.80;;;;;;4953044;28;20031;-69
2022/05/28 05:15:58;;;;;;;4.35;2.85;;;14.60;68.60;;;;;;4955229;28;20039;-69
2022/05/28 05:18:24;;;;;;;5.70;2.70;;;14.60;68.60;;;;;;4954426;28;20035;-69
2022/05/28 05:20:50;;;;;;;4.57;2.47;;;14.60;68.60;;;;;;4954037;28;20086;-69
2022/05/28 05:23:17;;;;;;;7.40;2.53;;;14.70;69.50;;;;;;4956636;28;20039;-69
2022/05/28 05:25:43;;;;;;;7.28;2.85;;;14.70;68.60;;;;;;4954436;28;20038;-69
2022/05/28 05:28:09;;;;;;;5.45;2.45;;;14.70;68.30;;;;;;4954482;28;20035;-69
2022/05/28 05:30:34;;;;;;;5.85;2.67;;;14.80;68.30;;;;;;4954702;28;20034;-69
2022/05/28 05:33:00;;;;;;;6.93;2.53;;;14.80;67.90;;;;;;4952216;28;20035;-69
2022/05/28 05:35:26;;;;;;;6.65;2.75;;;14.80;67.80;;;;;;4951984;28;20514;-69
2022/05/28 05:37:51;;;;;;;5.72;2.25;;;14.80;67.40;;;;;;4952596;28;20046;-69
2022/05/28 05:40:17;;;;;;;5.03;2.53;;;14.80;67.30;;;;;;4952415;28;20039;-69
2022/05/28 05:42:43;;;;;;;5.00;2.92;;;14.90;67.30;;;;;;4952393;28;20070;-69
2022/05/28 05:45:09;;;;;;;5.97;2.47;;;14.80;66.20;;;;;;4952262;28;20039;-69
2022/05/28 05:47:35;;;;;;;4.80;2.45;;;14.80;67.00;;;;;;4961808;28;20406;-69
2022/05/28 05:50:00;;;;;;;7.82;3.40;;;14.80;67.40;;;;;;4951628;28;20045;-69
2022/05/28 05:52:26;;;;;;;5.93;3.65;;;14.80;67.30;;;;;;4951080;28;20144;-69
2022/05/28 05:54:52;;;;;;;9.15;3.58;;;14.80;66.40;;;;;;4954647;28;20517;-68
2022/05/28 05:57:18;;;;;;;7.43;4.07;;;14.70;66.60;;;;;;4955312;28;20046;-67
2022/05/28 05:59:44;;;;;;;6.50;3.92;;;14.70;66.50;;;;;;4954491;28;20303;-70
2022/05/28 06:02:11;;;;;;;9.98;4.40;;;14.70;66.70;;;;;;4957808;28;20039;-70
2022/05/28 06:04:37;;;;;;;7.68;3.97;;;14.70;66.60;;;;;;4958807;28;20090;-68
2022/05/28 06:07:07;;;;;;;8.00;3.63;;;14.70;66.70;;;;;;4954482;28;20067;-69
2022/05/28 06:09:33;;;;;;;6.10;3.38;;;14.70;67.10;;;;;;4954987;28;20509;-69
2022/05/28 06:11:58;;;;;;;6.28;3.45;;;14.80;67.30;;;;;;4951005;28;20042;-69
2022/05/28 06:14:24;;;;;;;5.35;3.35;;;14.90;67.20;;;;;;4950891;28;20069;-68
2022/05/28 06:16:50;;;;;;;6.15;3.63;;;14.90;67.10;;;;;;4953812;28;20569;-69
2022/05/28 06:19:16;;;;;;;8.13;3.90;;;15.00;65.90;;;;;;4953881;28;20036;-69
2022/05/28 06:21:42;;;;;;;6.43;3.60;;;15.00;64.80;;;;;;4953982;28;20105;-69
2022/05/28 06:24:08;;;;;;;8.30;3.67;;;14.90;65.20;;;;;;4952607;28;20505;-69
2022/05/28 06:26:33;;;;;;;6.05;3.30;;;14.90;65.70;;;;;;4951842;28;20366;-69
2022/05/28 06:28:59;;;;;;;7.40;3.75;;;14.90;66.20;;;;;;4952585;28;20042;-69
2022/05/28 06:31:25;;;;;;;10.95;3.80;;;15.00;66.00;;;;;;4950807;28;20050;-68
2022/05/28 06:33:51;;;;;;;6.63;3.63;;;15.00;65.70;;;;;;4953952;28;20580;-69
2022/05/28 06:36:16;;;;;;;9.30;3.80;;;15.10;65.70;;;;;;4950677;28;20071;-67
2022/05/28 06:38:42;;;;;;;7.85;4.05;;;15.10;65.30;;;;;;4950831;28;20035;-67
2022/05/28 06:41:08;;;;;;;6.35;3.80;;;15.10;65.20;;;;;;4939168;28;20124;-67
2022/05/28 06:43:34;;;;;;;8.02;4.28;;;15.10;64.40;;;;;;4945579;28;20038;-68
2022/05/28 06:46:02;;;;;;;12.13;4.30;;;15.10;63.80;;;;;;4939815;28;20509;-68
2022/05/28 06:48:27;;;;;;;9.63;3.83;;;15.10;63.70;;;;;;4944621;28;20445;-68
2022/05/28 06:51:02;;;;;;;14.77;8.63;;;15.10;64.30;;;;;;4941642;28;20046;-65
2022/05/28 06:53:48;;;;;;;9.18;4.57;;;15.10;64.50;;;;;;4941329;28;20106;-66
2022/05/28 06:56:16;;;;;;;8.70;4.28;;;15.20;64.10;;;;;;4942819;28;20168;-66
2022/05/28 06:58:43;;;;;;;9.15;4.57;;;15.20;64.30;;;;;;4943311;28;20104;-67
2022/05/28 07:01:10;;;;;;;6.63;3.60;;;15.20;63.90;;;;;;4944847;28;20042;-65
2022/05/28 07:03:36;;;;;;;6.57;3.30;;;15.20;63.30;;;;;;4949103;28;20039;-66
2022/05/28 07:06:03;;;;;;;9.07;4.20;;;15.10;63.20;;;;;;4946239;28;20030;-66
2022/05/28 07:08:29;;;;;;;8.43;3.90;;;15.10;63.00;;;;;;4945052;28;20031;-67
2022/05/28 07:10:57;;;;;;;6.10;3.67;;;15.10;63.10;;;;;;4948681;28;20040;-68
2022/05/28 07:13:23;;;;;;;7.18;3.60;;;15.00;62.80;;;;;;4945590;28;20664;-68
2022/05/28 07:15:49;;;;;;;7.35;3.60;;;14.90;63.10;;;;;;4949733;28;20426;-68
2022/05/28 07:18:15;;;;;;;8.50;4.00;;;14.90;63.00;;;;;;4945412;28;20198;-68
2022/05/28 07:20:41;;;;;;;6.63;3.50;;;14.80;63.10;;;;;;4947874;28;20097;-67
2022/05/28 07:23:18;;;;;;;7.20;3.33;;;14.70;63.20;;;;;;4947531;28;20156;-65
2022/05/28 07:25:45;;;;;;;7.10;2.47;;;14.70;62.90;;;;;;4951753;28;20070;-68
2022/05/28 07:31:03;;;;;;;8.55;2.03;;;14.70;62.00;;;;;;4946945;28;20046;-68
2022/05/28 07:33:30;;;;;;;5.80;1.70;;;14.70;59.90;;;;;;4944922;28;20039;-68
2022/05/28 07:35:57;;;;;;;6.32;1.52;;;14.70;60.80;;;;;;4950789;28;20050;-67
2022/05/28 07:38:25;;;;;;;4.90;1.50;;;14.70;59.60;;;;;;4950763;28;20540;-68
2022/05/28 07:40:52;;;;;;;4.90;1.52;;;14.70;58.70;;;;;;4951331;28;20061;-69
2022/05/28 07:43:19;;;;;;;2.53;1.45;;;14.80;58.60;;;;;;4950322;28;20525;-67
2022/05/28 07:45:46;;;;;;;3.67;2.00;;;14.80;58.90;;;;;;4954423;28;20411;-68
2022/05/28 07:48:13;;;;;;;5.03;2.00;;;14.80;59.20;;;;;;4948842;28;20097;-68
2022/05/28 07:50:39;;;;;;;4.10;1.80;;;14.80;59.20;;;;;;4950363;28;20126;-68
2022/05/28 07:53:06;;;;;;;4.13;1.95;;;14.80;59.70;;;;;;4951631;28;20031;-68
2022/05/28 07:55:32;;;;;;;4.38;2.17;;;14.90;60.00;;;;;;4947040;28;20062;-68
2022/05/28 07:58:04;;;;;;;6.82;2.15;;;14.90;61.00;;;;;;4948997;28;20035;-68
2022/05/28 08:00:29;;;;;;;5.63;2.50;;;15.00;62.00;;;;;;4948848;28;20627;-67
2022/05/28 08:02:55;;;;;;;4.95;2.33;;;15.20;61.10;;;;;;4952550;28;20114;-68
2022/05/28 08:05:21;;;;;;;7.90;2.25;;;15.30;60.80;;;;;;4950490;28;20043;-67
2022/05/28 08:07:47;;;;;;;5.32;2.60;;;15.40;60.70;;;;;;4951300;28;20039;-67
2022/05/28 08:10:13;;;;;;;4.82;2.35;;;15.50;61.00;;;;;;4949362;28;20105;-68
2022/05/28 08:12:38;;;;;;;4.60;1.80;;;15.60;60.60;;;;;;4948702;28;20545;-67
2022/05/28 08:15:06;;;;;;;4.57;1.92;;;15.70;60.30;;;;;;4950857;28;20482;-68
2022/05/28 08:17:32;;;;;;;6.53;2.10;;;15.80;59.00;;;;;;4951552;28;20043;-68
2022/05/28 08:19:58;;;;;;;3.22;1.60;;;15.90;59.00;;;;;;4954660;28;20482;-68
2022/05/28 08:25:08;;;;;;;4.10;1.50;;;16.00;56.30;;;;;;4949559;28;20090;-68
2022/05/28 08:27:36;;;;;;;3.15;1.23;;;16.00;56.30;;;;;;4950902;28;20047;-68
2022/05/28 08:30:03;;;;;;;4.47;1.10;;;15.90;56.80;;;;;;4948624;28;20039;-67
2022/05/28 08:32:28;;;;;;;1.85;0.90;;;16.00;57.30;;;;;;4951616;28;20059;-68
2022/05/28 08:34:54;;;;;;;5.85;1.33;;;16.10;56.70;;;;;;4945725;28;20569;-67
2022/05/28 08:37:19;;;;;;;2.90;1.13;;;16.10;55.20;;;;;;4949030;28;20043;-67
2022/05/28 08:39:45;;;;;;;3.10;1.33;;;16.20;54.50;;;;;;4948999;28;20426;-68
2022/05/28 08:42:14;;;;;;;3.25;0.85;;;16.30;53.30;;;;;;4947340;28;20085;-67
2022/05/28 08:44:41;;;;;;;1.38;0.60;;;16.30;51.40;;;;;;4951461;28;20039;-67
2022/05/28 08:47:21;;;;;;;5.28;0.80;;;16.40;53.00;;;;;;4952496;28;20034;-67
2022/05/28 08:49:48;;;;;;;2.95;0.60;;;16.40;53.00;;;;;;4947028;28;20502;-68
2022/05/28 08:52:18;;;;;;;1.75;0.77;;;16.40;52.30;;;;;;4950202;28;20035;-67
2022/05/28 08:54:58;;;;;;;2.85;0.70;;;16.50;52.00;;;;;;4949142;28;20564;-66
2022/05/28 08:57:46;;;;;;;3.88;0.60;;;16.50;52.00;;;;;;4952314;28;20074;-67
2022/05/28 09:00:14;;;;;;;1.38;0.47;;;16.50;49.10;;;;;;4952651;28;20473;-66
2022/05/28 09:02:49;;;;;;;2.53;0.70;;;16.60;50.10;;;;;;4953747;28;20043;-67
2022/05/28 09:05:32;;;;;;;1.80;0.60;;;16.60;50.00;;;;;;4955338;28;20031;-67
2022/05/28 09:08:01;;;;;;;1.88;0.40;;;16.60;50.80;;;;;;4956034;28;20049;-67
2022/05/28 09:10:32;;;;;;;1.33;0.40;;;16.70;52.00;;;;;;4949818;28;20039;-66
2022/05/28 09:13:34;;;;;;;1.23;0.50;;;16.90;52.60;;;;;;4954844;28;20035;-68
2022/05/28 09:16:02;;;;;;;1.10;0.30;;;17.00;47.80;;;;;;4951234;28;20169;-67
2022/05/28 09:18:33;;;;;;;1.83;0.55;;;17.10;49.30;;;;;;4951136;28;20035;-67
2022/05/28 09:20:59;;;;;;;2.05;0.40;;;17.10;48.00;;;;;;4945198;28;20035;-65
2022/05/28 09:23:25;;;;;;;1.85;0.38;;;17.20;48.10;;;;;;4952945;28;20035;-67
2022/05/28 09:25:55;;;;;;;3.97;0.90;;;17.20;49.20;;;;;;4949608;28;20070;-67
2022/05/28 09:29:15;;;;;;;3.38;0.60;;;17.30;49.10;;;;;;4951006;28;20652;-67
2022/05/28 09:31:56;;;;;;;2.13;0.60;;;17.30;45.30;;;;;;4910118;28;20058;-65
2022/05/28 09:34:31;;;;;;;0.90;0.40;;;17.30;46.80;;;;;;4952583;28;20148;-67
2022/05/28 09:37:10;;;;;;;1.20;0.50;;;17.30;48.60;;;;;;4950359;28;20054;-67
2022/05/28 09:39:42;;;;;;;1.95;0.50;;;17.30;47.10;;;;;;4950651;28;20597;-65
2022/05/28 09:42:11;;;;;;;1.88;0.50;;;17.40;48.20;;;;;;4945980;28;20444;-67
2022/05/28 09:45:00;;;;;;;1.77;0.40;;;17.40;48.90;;;;;;4954670;28;20039;-67
2022/05/28 09:47:26;;;;;;;1.50;0.50;;;17.50;46.50;;;;;;4914674;28;20093;-68
2022/05/28 09:49:54;;;;;;;1.08;0.50;;;17.50;47.90;;;;;;4951394;28;20047;-67
2022/05/28 09:52:30;;;;;;;1.75;0.50;;;17.60;48.60;;;;;;4952272;28;20031;-66
2022/05/28 09:55:16;;;;;;;3.13;0.60;;;17.70;48.60;;;;;;4951929;28;20592;-67
2022/05/28 09:57:53;;;;;;;1.55;0.55;;;17.80;48.20;;;;;;4952293;28;20042;-66
2022/05/28 10:00:21;;;;;;;2.40;0.65;;;18.00;48.20;;;;;;4952087;28;20469;-66
2022/05/28 10:05:57;;;;;;;0.55;0.30;;;18.10;46.40;;;;;;4955432;28;20037;-66
2022/05/28 10:08:33;;;;;;;1.13;0.40;;;18.20;46.90;;;;;;4955432;28;20038;-66
2022/05/28 10:11:04;;;;;;;2.08;0.50;;;18.40;47.50;;;;;;4950251;28;20121;-66
2022/05/28 10:13:45;;;;;;;2.17;0.50;;;18.40;47.50;;;;;;4950491;28;20238;-64
2022/05/28 10:16:11;;;;;;;1.88;0.40;;;18.60;46.70;;;;;;4949550;28;20035;-66
2022/05/28 10:18:37;;;;;;;1.75;0.40;;;18.70;48.00;;;;;;4953035;28;20093;-66
2022/05/28 10:21:08;;;;;;;1.40;0.60;;;18.80;45.80;;;;;;4952887;28;20498;-66
2022/05/28 10:23:40;;;;;;;0.90;0.32;;;18.90;45.40;;;;;;4951562;28;20258;-66
2022/05/28 10:26:26;;;;;;;2.20;0.50;;;18.90;45.30;;;;;;4953621;28;20114;-68
2022/05/28 10:28:52;;;;;;;;;;;19.00;45.80;;;;;;4967584;28;20035;-69
2022/05/28 10:31:21;;;;;;;0.80;0.40;;;19.00;47.70;;;;;;4953172;28;20041;-68
2022/05/28 10:33:47;;;;;;;1.17;0.50;;;19.00;46.70;;;;;;4951399;28;20503;-69
2022/05/28 10:36:17;;;;;;;1.58;0.60;;;19.10;46.50;;;;;;4956075;28;20065;-69
2022/05/28 10:38:43;;;;;;;1.42;0.30;;;19.10;44.60;;;;;;4955107;28;20086;-67
2022/05/28 10:41:22;;;;;;;1.30;0.20;;;19.10;44.40;;;;;;4954111;28;20039;-68
2022/05/28 10:43:49;;;;;;;1.75;0.45;;;19.00;45.30;;;;;;4954449;28;20036;-69
2022/05/28 10:46:20;;;;;;;1.02;0.30;;;19.00;44.80;;;;;;4956765;28;20043;-68
2022/05/28 10:48:49;;;;;;;1.92;0.70;;;19.00;45.80;;;;;;4956192;28;20035;-69
2022/05/28 10:51:32;;;;;;;0.88;0.38;;;19.10;45.00;;;;;;4954035;28;20040;-69
2022/05/28 10:54:13;;;;;;;1.10;0.30;;;19.10;45.00;;;;;;4955709;28;20031;-68
2022/05/28 10:56:50;;;;;;;1.73;0.47;;;19.20;45.10;;;;;;4956921;28;20055;-69
2022/05/28 10:59:31;;;;;;;2.22;0.68;;;19.20;45.30;;;;;;4956887;28;20118;-69
2022/05/28 11:02:00;;;;;;;2.70;0.55;;;19.30;44.10;;;;;;4961067;28;20027;-71
2022/05/28 11:04:48;;;;;;;2.38;0.70;;;19.30;45.20;;;;;;4955572;28;20568;-69
2022/05/28 11:07:28;;;;;;;2.38;0.77;;;19.30;44.80;;;;;;4954502;28;20550;-68
2022/05/28 11:10:16;;;;;;;1.30;0.60;;;19.20;45.00;;;;;;4960936;28;20058;-70
2022/05/28 11:13:03;;;;;;;2.13;0.60;;;19.20;44.10;;;;;;4951459;28;20042;-68
2022/05/28 11:15:52;;;;;;;1.38;0.40;;;19.20;44.10;;;;;;4954768;28;20114;-69
2022/05/28 11:18:23;;;;;;;2.33;0.52;;;19.20;45.20;;;;;;4955227;28;20407;-68
2022/05/28 11:21:05;;;;;;;2.20;0.57;;;19.20;44.40;;;;;;4956192;28;20546;-69
2022/05/28 11:23:52;;;;;;;1.50;0.52;;;19.20;44.50;;;;;;4954388;28;20090;-68
2022/05/28 11:26:56;;;;;;;1.55;0.40;;;19.20;44.30;;;;;;4957947;28;20514;-68
2022/05/28 11:29:44;;;;;;;3.20;0.70;;;19.20;44.00;;;;;;4918501;28;20051;-68
2022/05/28 11:32:18;;;;;;;3.05;0.50;;;19.20;43.80;;;;;;4953633;28;20062;-69
2022/05/28 11:35:20;;;;;;;1.23;0.50;;;19.20;45.00;;;;;;4967426;28;20069;-66
2022/05/28 11:37:57;;;;;;;2.75;0.70;;;19.30;44.60;;;;;;4925041;28;20517;-67
2022/05/28 11:40:24;;;;;;;2.50;0.50;;;19.30;43.00;;;;;;4955830;28;20566;-67
2022/05/28 11:43:09;;;;;;;2.38;0.57;;;19.30;44.50;;;;;;4953499;28;20067;-67
2022/05/28 11:45:47;;;;;;;1.38;0.40;;;19.30;42.00;;;;;;4957595;28;20031;-67
2022/05/28 11:48:28;;;;;;;1.65;0.47;;;19.30;42.90;;;;;;4955127;28;20031;-66
2022/05/28 11:51:28;;;;;;;2.22;0.60;;;19.30;44.30;;;;;;4955384;28;20042;-66
2022/05/28 11:54:11;;;;;;;2.05;0.75;;;19.30;43.00;;;;;;4955732;28;20414;-67
2022/05/28 11:56:36;;;;;;;2.53;0.63;;;19.30;44.00;;;;;;4957010;28;20126;-66
2022/05/28 11:59:13;;;;;;;2.47;0.43;;;19.40;44.80;;;;;;4956482;28;20604;-67
2022/05/28 12:01:47;;;;;;;3.47;0.70;;;19.40;44.60;;;;;;4953326;28;20434;-67
2022/05/28 12:04:13;;;;;;;3.53;0.73;;;19.50;43.80;;;;;;4953463;28;20027;-66
2022/05/28 12:07:00;;;;;;;2.30;0.63;;;19.50;43.50;;;;;;4954484;28;20031;-67
2022/05/28 12:09:28;;;;;;;1.75;0.63;;;19.50;41.60;;;;;;4953031;28;20040;-67
2022/05/28 12:12:18;;;;;;;1.48;0.40;;;19.40;44.00;;;;;;4953779;28;20039;-67
2022/05/28 12:14:47;;;;;;;1.70;0.50;;;19.40;44.10;;;;;;4958362;28;20070;-67
2022/05/28 12:17:19;;;;;;;2.00;0.50;;;19.40;44.70;;;;;;4957854;28;20057;-66
2022/05/28 12:20:10;;;;;;;2.35;0.55;;;19.40;44.20;;;;;;4958936;28;20535;-66
2022/05/28 12:22:41;;;;;;;3.40;0.80;;;19.40;43.20;;;;;;4952356;28;20789;-66
2022/05/28 12:25:14;;;;;;;2.83;0.65;;;19.40;42.30;;;;;;4951221;28;20542;-66
2022/05/28 12:27:46;;;;;;;2.83;0.50;;;19.30;42.20;;;;;;4952422;28;20565;-66
2022/05/28 12:30:30;;;;;;;1.80;0.40;;;19.20;42.70;;;;;;4954034;28;20038;-66
2022/05/28 12:32:57;;;;;;;2.17;0.60;;;19.10;42.70;;;;;;4953896;28;20684;-67
2022/05/28 12:35:26;;;;;;;4.90;0.80;;;19.10;43.70;;;;;;4953247;28;20039;-66
2022/05/28 12:38:08;;;;;;;2.15;0.70;;;19.00;43.00;;;;;;4955519;28;20035;-66
2022/05/28 12:40:53;;;;;;;1.55;0.55;;;18.90;41.90;;;;;;4952053;28;20429;-66
2022/05/28 12:43:24;;;;;;;3.13;0.50;;;18.80;41.90;;;;;;4954818;28;20039;-67
2022/05/28 12:45:52;;;;;;;1.17;0.50;;;18.70;43.90;;;;;;4960424;28;20105;-66
2022/05/28 12:48:31;;;;;;;2.08;0.60;;;18.70;44.60;;;;;;4961507;28;20418;-66
2022/05/28 12:51:28;;;;;;;2.80;0.60;;;18.60;44.40;;;;;;4960293;28;20039;-66
2022/05/28 12:53:59;;;;;;;1.42;0.47;;;18.50;44.80;;;;;;4961461;28;20067;-68
2022/05/28 12:56:25;;;;;;;2.30;0.50;;;18.50;43.30;;;;;;4958961;28;20031;-66
2022/05/28 12:58:52;;;;;;;3.25;0.75;;;18.40;44.60;;;;;;4958426;28;20446;-68
2022/05/28 13:01:26;;;;;;;1.65;0.55;;;18.30;44.40;;;;;;4959330;28;20027;-68
2022/05/28 13:03:53;;;;;;;1.38;0.30;;;18.30;44.30;;;;;;4962256;28;20045;-68
2022/05/28 13:06:28;;;;;;;1.73;0.40;;;18.30;45.30;;;;;;4958292;28;20066;-69
2022/05/28 13:09:04;;;;;;;1.48;0.52;;;18.30;44.20;;;;;;4959447;28;20549;-68
2022/05/28 13:11:51;;;;;;;4.45;0.50;;;18.30;43.70;;;;;;4955868;28;20050;-65
2022/05/28 13:14:20;;;;;;;3.92;0.65;;;18.40;43.50;;;;;;4957115;28;20042;-68